sensor_id;sensor_type;location;lat;lon;timestamp;temperature;humidity
21429;DHT22;10875;50.444;30.540;2022-07-05T00:00:13;24.80;92.50
21429;DHT22;10875;50.444;30.540;2022-07-05T00:02:39;24.70;92.60
21429;DHT22;10875;50.444;30.540;2022-07-05T00:05:05;24.70;92.80
21429;DHT22;10875;50.444;30.540;2022-07-05T00:07:30;24.60;92.90
21429;DHT22;10875;50.444;30.540;2022-07-05T00:09:56;24.60;93.10
21429;DHT22;10875;50.444;30.540;2022-07-05T00:12:26;24.50;93.20
21429;DHT22;10875;50.444;30.540;2022-07-05T00:14:52;24.50;93.30
21429;DHT22;10875;50.444;30.540;2022-07-05T00:17:18;24.50;93.40
21429;DHT22;10875;50.444;30.540;2022-07-05T00:19:44;24.50;93.50
21429;DHT22;10875;50.444;30.540;2022-07-05T00:22:09;24.50;93.60
21429;DHT22;10875;50.444;30.540;2022-07-05T00:24:35;24.50;93.70
21429;DHT22;10875;50.444;30.540;2022-07-05T00:27:01;24.50;93.90
21429;DHT22;10875;50.444;30.540;2022-07-05T00:29:26;24.40;94.00
21429;DHT22;10875;50.444;30.540;2022-07-05T00:31:52;24.40;94.10
21429;DHT22;10875;50.444;30.540;2022-07-05T00:34:17;24.40;94.20
21429;DHT22;10875;50.444;30.540;2022-07-05T00:36:43;24.30;94.30
21429;DHT22;10875;50.444;30.540;2022-07-05T00:39:08;24.30;94.40
21429;DHT22;10875;50.444;30.540;2022-07-05T00:41:34;24.30;94.50
21429;DHT22;10875;50.444;30.540;2022-07-05T00:44:02;24.30;94.60
21429;DHT22;10875;50.444;30.540;2022-07-05T00:46:28;24.30;94.70
21429;DHT22;10875;50.444;30.540;2022-07-05T00:48:54;24.30;94.80
21429;DHT22;10875;50.444;30.540;2022-07-05T00:51:20;24.30;95.00
21429;DHT22;10875;50.444;30.540;2022-07-05T00:53:45;24.30;95.10
21429;DHT22;10875;50.444;30.540;2022-07-05T00:56:11;24.30;95.10
21429;DHT22;10875;50.444;30.540;2022-07-05T00:58:37;24.30;95.30
21429;DHT22;10875;50.444;30.540;2022-07-05T01:01:03;24.30;95.40
21429;DHT22;10875;50.444;30.540;2022-07-05T01:03:29;24.30;95.40
21429;DHT22;10875;50.444;30.540;2022-07-05T01:05:54;24.30;95.60
21429;DHT22;10875;50.444;30.540;2022-07-05T01:08:20;24.20;95.80
21429;DHT22;10875;50.444;30.540;2022-07-05T01:10:46;24.20;95.90
21429;DHT22;10875;50.444;30.540;2022-07-05T01:13:11;24.20;96.10
21429;DHT22;10875;50.444;30.540;2022-07-05T01:15:38;24.10;96.20
21429;DHT22;10875;50.444;30.540;2022-07-05T01:18:04;24.10;96.40
21429;DHT22;10875;50.444;30.540;2022-07-05T01:20:30;24.10;96.50
21429;DHT22;10875;50.444;30.540;2022-07-05T01:22:56;24.10;96.70
21429;DHT22;10875;50.444;30.540;2022-07-05T01:25:26;24.10;96.90
21429;DHT22;10875;50.444;30.540;2022-07-05T01:27:52;24.10;97.00
21429;DHT22;10875;50.444;30.540;2022-07-05T01:30:18;24.00;97.10
21429;DHT22;10875;50.444;30.540;2022-07-05T01:32:44;24.00;97.30
21429;DHT22;10875;50.444;30.540;2022-07-05T01:35:09;24.10;97.40
21429;DHT22;10875;50.444;30.540;2022-07-05T01:37:36;24.10;97.50
21429;DHT22;10875;50.444;30.540;2022-07-05T01:40:05;24.00;97.60
21429;DHT22;10875;50.444;30.540;2022-07-05T01:42:31;24.00;97.80
21429;DHT22;10875;50.444;30.540;2022-07-05T01:44:57;24.00;98.10
21429;DHT22;10875;50.444;30.540;2022-07-05T01:47:22;23.90;98.30
21429;DHT22;10875;50.444;30.540;2022-07-05T01:49:49;23.90;98.60
21429;DHT22;10875;50.444;30.540;2022-07-05T01:52:16;23.90;98.90
21429;DHT22;10875;50.444;30.540;2022-07-05T01:54:42;23.90;99.00
21429;DHT22;10875;50.444;30.540;2022-07-05T01:57:08;23.90;99.20
21429;DHT22;10875;50.444;30.540;2022-07-05T01:59:34;23.90;99.40
21429;DHT22;10875;50.444;30.540;2022-07-05T02:02:00;23.90;99.60
21429;DHT22;10875;50.444;30.540;2022-07-05T02:04:26;23.80;99.70
21429;DHT22;10875;50.444;30.540;2022-07-05T02:06:52;23.80;99.90
21429;DHT22;10875;50.444;30.540;2022-07-05T02:09:18;23.80;99.90
21429;DHT22;10875;50.444;30.540;2022-07-05T02:11:43;23.70;99.90
21429;DHT22;10875;50.444;30.540;2022-07-05T02:14:09;23.70;99.90
21429;DHT22;10875;50.444;30.540;2022-07-05T02:16:34;23.70;99.90
21429;DHT22;10875;50.444;30.540;2022-07-05T02:19:00;23.70;99.90
21429;DHT22;10875;50.444;30.540;2022-07-05T02:21:25;23.70;99.90
21429;DHT22;10875;50.444;30.540;2022-07-05T02:23:52;23.60;99.90
21429;DHT22;10875;50.444;30.540;2022-07-05T02:26:17;23.60;99.90
21429;DHT22;10875;50.444;30.540;2022-07-05T02:28:43;23.50;99.90
21429;DHT22;10875;50.444;30.540;2022-07-05T02:31:08;23.50;99.90
21429;DHT22;10875;50.444;30.540;2022-07-05T02:33:34;23.60;99.90
21429;DHT22;10875;50.444;30.540;2022-07-05T02:36:11;23.50;99.90
21429;DHT22;10875;50.444;30.540;2022-07-05T02:38:36;23.50;99.90
21429;DHT22;10875;50.444;30.540;2022-07-05T02:41:09;23.50;99.90
21429;DHT22;10875;50.444;30.540;2022-07-05T02:43:34;23.50;99.90
21429;DHT22;10875;50.444;30.540;2022-07-05T02:46:00;23.50;99.90
21429;DHT22;10875;50.444;30.540;2022-07-05T02:48:26;23.50;99.90
21429;DHT22;10875;50.444;30.540;2022-07-05T02:50:52;23.50;99.90
21429;DHT22;10875;50.444;30.540;2022-07-05T02:53:17;23.40;99.90
21429;DHT22;10875;50.444;30.540;2022-07-05T02:55:43;23.30;99.90
21429;DHT22;10875;50.444;30.540;2022-07-05T02:58:08;23.40;99.90
21429;DHT22;10875;50.444;30.540;2022-07-05T03:00:34;23.40;99.90
21429;DHT22;10875;50.444;30.540;2022-07-05T03:02:59;23.40;99.90
21429;DHT22;10875;50.444;30.540;2022-07-05T03:05:25;23.40;99.90
21429;DHT22;10875;50.444;30.540;2022-07-05T03:07:50;23.50;99.90
21429;DHT22;10875;50.444;30.540;2022-07-05T03:10:15;23.50;99.90
21429;DHT22;10875;50.444;30.540;2022-07-05T03:12:41;23.50;99.90
21429;DHT22;10875;50.444;30.540;2022-07-05T03:15:07;23.60;99.90
21429;DHT22;10875;50.444;30.540;2022-07-05T03:17:32;23.60;99.90
21429;DHT22;10875;50.444;30.540;2022-07-05T03:19:58;23.70;99.90
21429;DHT22;10875;50.444;30.540;2022-07-05T03:22:23;23.70;99.90
21429;DHT22;10875;50.444;30.540;2022-07-05T03:24:49;23.80;99.90
21429;DHT22;10875;50.444;30.540;2022-07-05T03:27:14;23.80;99.90
21429;DHT22;10875;50.444;30.540;2022-07-05T03:29:40;23.80;99.90
21429;DHT22;10875;50.444;30.540;2022-07-05T03:32:05;23.90;99.90
21429;DHT22;10875;50.444;30.540;2022-07-05T03:34:31;23.90;99.90
21429;DHT22;10875;50.444;30.540;2022-07-05T03:36:56;23.90;99.90
21429;DHT22;10875;50.444;30.540;2022-07-05T03:39:22;23.90;99.90
21429;DHT22;10875;50.444;30.540;2022-07-05T03:41:47;23.90;99.90
21429;DHT22;10875;50.444;30.540;2022-07-05T03:44:13;24.00;99.90
21429;DHT22;10875;50.444;30.540;2022-07-05T03:46:38;24.00;99.90
21429;DHT22;10875;50.444;30.540;2022-07-05T03:49:04;24.00;99.90
21429;DHT22;10875;50.444;30.540;2022-07-05T03:51:29;24.00;99.90
21429;DHT22;10875;50.444;30.540;2022-07-05T03:53:55;24.00;99.90
21429;DHT22;10875;50.444;30.540;2022-07-05T03:56:20;24.00;99.90
21429;DHT22;10875;50.444;30.540;2022-07-05T03:58:48;24.00;99.90
21429;DHT22;10875;50.444;30.540;2022-07-05T04:01:14;24.10;99.90
21429;DHT22;10875;50.444;30.540;2022-07-05T04:03:40;24.10;99.90
21429;DHT22;10875;50.444;30.540;2022-07-05T04:06:06;24.20;99.90
21429;DHT22;10875;50.444;30.540;2022-07-05T04:08:31;24.20;99.90
21429;DHT22;10875;50.444;30.540;2022-07-05T04:10:57;24.30;99.90
21429;DHT22;10875;50.444;30.540;2022-07-05T04:13:22;24.30;99.90
21429;DHT22;10875;50.444;30.540;2022-07-05T04:15:48;24.40;99.90
21429;DHT22;10875;50.444;30.540;2022-07-05T04:18:14;24.40;99.90
21429;DHT22;10875;50.444;30.540;2022-07-05T04:20:40;24.60;99.90
21429;DHT22;10875;50.444;30.540;2022-07-05T04:23:05;24.70;99.90
21429;DHT22;10875;50.444;30.540;2022-07-05T04:25:31;24.80;99.90
21429;DHT22;10875;50.444;30.540;2022-07-05T04:27:57;24.90;99.90
21429;DHT22;10875;50.444;30.540;2022-07-05T04:30:23;25.00;99.90
21429;DHT22;10875;50.444;30.540;2022-07-05T04:32:49;25.00;99.90
21429;DHT22;10875;50.444;30.540;2022-07-05T04:35:15;25.00;99.90
21429;DHT22;10875;50.444;30.540;2022-07-05T04:37:41;25.10;99.90
21429;DHT22;10875;50.444;30.540;2022-07-05T04:40:07;25.10;99.90
21429;DHT22;10875;50.444;30.540;2022-07-05T04:42:33;25.10;99.90
21429;DHT22;10875;50.444;30.540;2022-07-05T04:44:59;25.10;99.90
21429;DHT22;10875;50.444;30.540;2022-07-05T04:47:24;25.10;99.90
21429;DHT22;10875;50.444;30.540;2022-07-05T04:49:53;25.00;99.90
21429;DHT22;10875;50.444;30.540;2022-07-05T04:52:19;25.00;99.90
21429;DHT22;10875;50.444;30.540;2022-07-05T04:54:44;25.00;99.90
21429;DHT22;10875;50.444;30.540;2022-07-05T04:57:10;25.00;99.90
21429;DHT22;10875;50.444;30.540;2022-07-05T04:59:35;24.90;99.90
21429;DHT22;10875;50.444;30.540;2022-07-05T05:02:01;25.00;99.90
21429;DHT22;10875;50.444;30.540;2022-07-05T05:04:26;25.00;99.90
21429;DHT22;10875;50.444;30.540;2022-07-05T05:06:52;25.00;99.90
21429;DHT22;10875;50.444;30.540;2022-07-05T05:09:17;25.00;99.90
21429;DHT22;10875;50.444;30.540;2022-07-05T05:11:43;25.10;99.90
21429;DHT22;10875;50.444;30.540;2022-07-05T05:14:08;25.10;99.90
21429;DHT22;10875;50.444;30.540;2022-07-05T05:16:34;25.20;99.90
21429;DHT22;10875;50.444;30.540;2022-07-05T05:18:59;25.30;99.90
21429;DHT22;10875;50.444;30.540;2022-07-05T05:21:25;25.40;99.90
21429;DHT22;10875;50.444;30.540;2022-07-05T05:23:50;25.40;99.90
21429;DHT22;10875;50.444;30.540;2022-07-05T05:26:16;25.40;99.90
21429;DHT22;10875;50.444;30.540;2022-07-05T05:28:41;25.40;99.90
21429;DHT22;10875;50.444;30.540;2022-07-05T05:31:07;25.40;99.90
21429;DHT22;10875;50.444;30.540;2022-07-05T05:33:33;25.40;99.90
21429;DHT22;10875;50.444;30.540;2022-07-05T05:35:58;25.40;99.90
21429;DHT22;10875;50.444;30.540;2022-07-05T05:38:24;25.70;99.90
21429;DHT22;10875;50.444;30.540;2022-07-05T05:40:49;25.40;99.90
21429;DHT22;10875;50.444;30.540;2022-07-05T05:43:15;25.40;99.90
21429;DHT22;10875;50.444;30.540;2022-07-05T05:45:40;25.50;99.90
21429;DHT22;10875;50.444;30.540;2022-07-05T05:48:06;25.60;99.90
21429;DHT22;10875;50.444;30.540;2022-07-05T05:50:32;25.70;99.90
21429;DHT22;10875;50.444;30.540;2022-07-05T05:52:58;25.90;99.90
21429;DHT22;10875;50.444;30.540;2022-07-05T05:55:24;26.10;99.90
21429;DHT22;10875;50.444;30.540;2022-07-05T05:57:50;26.20;99.90
21429;DHT22;10875;50.444;30.540;2022-07-05T06:00:16;26.30;99.90
21429;DHT22;10875;50.444;30.540;2022-07-05T06:02:43;26.30;99.90
21429;DHT22;10875;50.444;30.540;2022-07-05T06:05:09;26.30;99.90
21429;DHT22;10875;50.444;30.540;2022-07-05T06:07:47;26.40;99.90
21429;DHT22;10875;50.444;30.540;2022-07-05T06:12:45;26.80;99.90
21429;DHT22;10875;50.444;30.540;2022-07-05T06:15:10;26.80;99.90
21429;DHT22;10875;50.444;30.540;2022-07-05T06:17:37;26.90;99.90
21429;DHT22;10875;50.444;30.540;2022-07-05T06:20:10;27.00;99.90
21429;DHT22;10875;50.444;30.540;2022-07-05T06:22:36;27.00;99.90
21429;DHT22;10875;50.444;30.540;2022-07-05T06:25:02;27.10;99.90
21429;DHT22;10875;50.444;30.540;2022-07-05T06:27:27;27.20;99.90
21429;DHT22;10875;50.444;30.540;2022-07-05T06:29:53;27.30;99.90
21429;DHT22;10875;50.444;30.540;2022-07-05T06:32:18;27.50;99.90
21429;DHT22;10875;50.444;30.540;2022-07-05T06:34:44;27.50;99.90
21429;DHT22;10875;50.444;30.540;2022-07-05T06:37:09;27.60;99.90
21429;DHT22;10875;50.444;30.540;2022-07-05T06:39:35;27.60;99.90
21429;DHT22;10875;50.444;30.540;2022-07-05T06:42:00;27.70;99.90
21429;DHT22;10875;50.444;30.540;2022-07-05T06:44:26;27.80;99.90
21429;DHT22;10875;50.444;30.540;2022-07-05T06:46:51;27.80;99.90
21429;DHT22;10875;50.444;30.540;2022-07-05T06:49:17;27.90;99.90
21429;DHT22;10875;50.444;30.540;2022-07-05T06:51:42;27.90;99.90
21429;DHT22;10875;50.444;30.540;2022-07-05T06:54:08;27.90;99.90
21429;DHT22;10875;50.444;30.540;2022-07-05T06:56:33;28.00;99.90
21429;DHT22;10875;50.444;30.540;2022-07-05T06:58:59;28.10;99.90
21429;DHT22;10875;50.444;30.540;2022-07-05T07:01:24;28.20;99.90
21429;DHT22;10875;50.444;30.540;2022-07-05T07:03:50;28.40;99.90
21429;DHT22;10875;50.444;30.540;2022-07-05T07:06:16;28.50;99.90
21429;DHT22;10875;50.444;30.540;2022-07-05T07:08:41;28.60;99.90
21429;DHT22;10875;50.444;30.540;2022-07-05T07:11:25;28.80;99.90
21429;DHT22;10875;50.444;30.540;2022-07-05T07:13:51;28.80;99.90
21429;DHT22;10875;50.444;30.540;2022-07-05T07:16:16;28.90;99.90
21429;DHT22;10875;50.444;30.540;2022-07-05T07:18:42;29.00;99.90
21429;DHT22;10875;50.444;30.540;2022-07-05T07:21:07;29.10;97.60
21429;DHT22;10875;50.444;30.540;2022-07-05T07:23:33;29.00;97.40
21429;DHT22;10875;50.444;30.540;2022-07-05T07:25:58;28.90;96.40
21429;DHT22;10875;50.444;30.540;2022-07-05T07:28:23;28.80;96.00
21429;DHT22;10875;50.444;30.540;2022-07-05T07:30:49;28.80;96.60
21429;DHT22;10875;50.444;30.540;2022-07-05T07:33:15;29.00;96.40
21429;DHT22;10875;50.444;30.540;2022-07-05T07:35:40;29.20;96.10
21429;DHT22;10875;50.444;30.540;2022-07-05T07:38:06;29.40;95.50
21429;DHT22;10875;50.444;30.540;2022-07-05T07:40:31;29.50;94.80
21429;DHT22;10875;50.444;30.540;2022-07-05T07:42:57;29.60;94.90
21429;DHT22;10875;50.444;30.540;2022-07-05T07:45:22;29.70;94.00
21429;DHT22;10875;50.444;30.540;2022-07-05T07:47:48;29.70;93.60
21429;DHT22;10875;50.444;30.540;2022-07-05T07:50:13;29.80;92.60
21429;DHT22;10875;50.444;30.540;2022-07-05T07:52:39;29.70;92.50
21429;DHT22;10875;50.444;30.540;2022-07-05T07:55:05;29.70;92.00
21429;DHT22;10875;50.444;30.540;2022-07-05T07:57:31;29.80;91.90
21429;DHT22;10875;50.444;30.540;2022-07-05T07:59:57;29.80;92.20
21429;DHT22;10875;50.444;30.540;2022-07-05T08:02:22;29.80;92.10
21429;DHT22;10875;50.444;30.540;2022-07-05T08:04:49;29.80;90.90
21429;DHT22;10875;50.444;30.540;2022-07-05T08:07:15;29.90;90.90
21429;DHT22;10875;50.444;30.540;2022-07-05T08:09:42;30.00;91.10
21429;DHT22;10875;50.444;30.540;2022-07-05T08:12:08;30.30;90.80
21429;DHT22;10875;50.444;30.540;2022-07-05T08:14:34;30.50;90.10
21429;DHT22;10875;50.444;30.540;2022-07-05T08:16:59;30.50;89.30
21429;DHT22;10875;50.444;30.540;2022-07-05T08:19:24;30.60;89.00
21429;DHT22;10875;50.444;30.540;2022-07-05T08:22:09;30.50;90.60
21429;DHT22;10875;50.444;30.540;2022-07-05T08:24:38;30.60;90.70
21429;DHT22;10875;50.444;30.540;2022-07-05T08:27:05;30.60;90.90
21429;DHT22;10875;50.444;30.540;2022-07-05T08:29:30;30.50;90.50
21429;DHT22;10875;50.444;30.540;2022-07-05T08:31:56;30.70;89.50
21429;DHT22;10875;50.444;30.540;2022-07-05T08:34:22;31.00;88.60
21429;DHT22;10875;50.444;30.540;2022-07-05T08:36:47;31.20;84.90
21429;DHT22;10875;50.444;30.540;2022-07-05T08:39:13;31.30;83.40
21429;DHT22;10875;50.444;30.540;2022-07-05T08:41:39;31.40;83.40
21429;DHT22;10875;50.444;30.540;2022-07-05T08:44:06;31.30;85.90
21429;DHT22;10875;50.444;30.540;2022-07-05T08:46:32;31.30;86.30
21429;DHT22;10875;50.444;30.540;2022-07-05T08:48:59;31.70;86.40
21429;DHT22;10875;50.444;30.540;2022-07-05T08:51:24;31.80;85.80
21429;DHT22;10875;50.444;30.540;2022-07-05T08:53:52;31.80;86.00
21429;DHT22;10875;50.444;30.540;2022-07-05T08:56:18;32.10;86.10
21429;DHT22;10875;50.444;30.540;2022-07-05T08:58:43;32.50;85.10
21429;DHT22;10875;50.444;30.540;2022-07-05T09:01:10;32.70;84.20
21429;DHT22;10875;50.444;30.540;2022-07-05T09:03:51;32.70;82.30
21429;DHT22;10875;50.444;30.540;2022-07-05T09:06:18;32.60;80.60
21429;DHT22;10875;50.444;30.540;2022-07-05T09:08:44;32.30;79.90
21429;DHT22;10875;50.444;30.540;2022-07-05T09:11:14;32.20;78.80
21429;DHT22;10875;50.444;30.540;2022-07-05T09:13:40;32.40;79.60
21429;DHT22;10875;50.444;30.540;2022-07-05T09:16:06;32.60;79.50
21429;DHT22;10875;50.444;30.540;2022-07-05T09:18:38;32.80;79.10
21429;DHT22;10875;50.444;30.540;2022-07-05T09:21:22;32.80;78.00
21429;DHT22;10875;50.444;30.540;2022-07-05T09:23:55;33.00;77.40
21429;DHT22;10875;50.444;30.540;2022-07-05T09:26:26;33.10;77.20
21429;DHT22;10875;50.444;30.540;2022-07-05T09:28:57;33.10;77.00
21429;DHT22;10875;50.444;30.540;2022-07-05T09:31:26;33.20;77.30
21429;DHT22;10875;50.444;30.540;2022-07-05T09:33:52;33.30;78.20
21429;DHT22;10875;50.444;30.540;2022-07-05T09:36:18;33.40;78.20
21429;DHT22;10875;50.444;30.540;2022-07-05T09:38:48;33.80;78.50
21429;DHT22;10875;50.444;30.540;2022-07-05T09:41:15;34.10;77.60
21429;DHT22;10875;50.444;30.540;2022-07-05T09:43:40;34.40;77.30
21429;DHT22;10875;50.444;30.540;2022-07-05T09:46:06;34.50;75.00
21429;DHT22;10875;50.444;30.540;2022-07-05T09:48:33;34.40;75.00
21429;DHT22;10875;50.444;30.540;2022-07-05T09:53:46;34.50;75.10
21429;DHT22;10875;50.444;30.540;2022-07-05T09:56:12;34.40;74.40
21429;DHT22;10875;50.444;30.540;2022-07-05T09:58:39;34.20;75.10
21429;DHT22;10875;50.444;30.540;2022-07-05T10:03:51;34.30;74.40
21429;DHT22;10875;50.444;30.540;2022-07-05T10:06:18;34.70;73.60
21429;DHT22;10875;50.444;30.540;2022-07-05T10:08:44;34.80;73.10
21429;DHT22;10875;50.444;30.540;2022-07-05T10:11:09;34.80;72.60
21429;DHT22;10875;50.444;30.540;2022-07-05T10:13:35;34.80;72.50
21429;DHT22;10875;50.444;30.540;2022-07-05T10:16:01;34.60;72.40
21429;DHT22;10875;50.444;30.540;2022-07-05T10:18:27;34.40;72.30
21429;DHT22;10875;50.444;30.540;2022-07-05T10:20:56;34.40;73.40
21429;DHT22;10875;50.444;30.540;2022-07-05T10:23:24;34.10;73.30
21429;DHT22;10875;50.444;30.540;2022-07-05T10:25:50;33.50;74.70
21429;DHT22;10875;50.444;30.540;2022-07-05T10:28:17;32.70;75.50
21429;DHT22;10875;50.444;30.540;2022-07-05T10:30:46;32.80;75.30
21429;DHT22;10875;50.444;30.540;2022-07-05T10:33:15;33.00;74.00
21429;DHT22;10875;50.444;30.540;2022-07-05T10:35:44;33.00;74.30
21429;DHT22;10875;50.444;30.540;2022-07-05T10:38:10;33.40;73.70
21429;DHT22;10875;50.444;30.540;2022-07-05T10:40:39;33.90;72.40
21429;DHT22;10875;50.444;30.540;2022-07-05T10:43:05;34.30;72.10
21429;DHT22;10875;50.444;30.540;2022-07-05T10:45:33;34.80;72.00
21429;DHT22;10875;50.444;30.540;2022-07-05T10:50:43;35.80;68.30
21429;DHT22;10875;50.444;30.540;2022-07-05T10:53:09;36.00;68.10
21429;DHT22;10875;50.444;30.540;2022-07-05T10:55:51;36.00;68.30
21429;DHT22;10875;50.444;30.540;2022-07-05T11:00:42;36.20;68.10
21429;DHT22;10875;50.444;30.540;2022-07-05T11:05:52;36.60;66.00
21429;DHT22;10875;50.444;30.540;2022-07-05T11:08:18;36.70;65.80
21429;DHT22;10875;50.444;30.540;2022-07-05T11:13:38;35.30;69.40
21429;DHT22;10875;50.444;30.540;2022-07-05T11:16:20;34.40;71.20
21429;DHT22;10875;50.444;30.540;2022-07-05T11:18:47;33.50;71.50
21429;DHT22;10875;50.444;30.540;2022-07-05T11:21:20;32.90;72.70
21429;DHT22;10875;50.444;30.540;2022-07-05T11:23:46;33.10;72.60
21429;DHT22;10875;50.444;30.540;2022-07-05T11:26:12;33.60;72.30
21429;DHT22;10875;50.444;30.540;2022-07-05T11:28:45;34.00;71.80
21429;DHT22;10875;50.444;30.540;2022-07-05T11:31:11;34.30;72.50
21429;DHT22;10875;50.444;30.540;2022-07-05T11:33:37;34.20;72.10
21429;DHT22;10875;50.444;30.540;2022-07-05T11:36:05;33.70;71.80
21429;DHT22;10875;50.444;30.540;2022-07-05T11:38:32;33.60;71.50
21429;DHT22;10875;50.444;30.540;2022-07-05T11:41:13;33.30;72.10
21429;DHT22;10875;50.444;30.540;2022-07-05T11:43:38;32.90;73.00
21429;DHT22;10875;50.444;30.540;2022-07-05T11:46:06;32.10;73.90
21429;DHT22;10875;50.444;30.540;2022-07-05T11:48:31;31.70;74.90
21429;DHT22;10875;50.444;30.540;2022-07-05T11:50:57;31.50;75.50
21429;DHT22;10875;50.444;30.540;2022-07-05T11:53:29;31.50;75.30
21429;DHT22;10875;50.444;30.540;2022-07-05T11:55:58;31.30;75.00
21429;DHT22;10875;50.444;30.540;2022-07-05T11:58:33;31.30;75.40
21429;DHT22;10875;50.444;30.540;2022-07-05T12:00:59;31.30;75.30
21429;DHT22;10875;50.444;30.540;2022-07-05T12:03:25;31.40;75.90
21429;DHT22;10875;50.444;30.540;2022-07-05T12:05:51;31.70;75.10
21429;DHT22;10875;50.444;30.540;2022-07-05T12:08:26;31.80;76.90
21429;DHT22;10875;50.444;30.540;2022-07-05T12:10:52;31.80;75.50
21429;DHT22;10875;50.444;30.540;2022-07-05T12:16:10;31.70;75.10
21429;DHT22;10875;50.444;30.540;2022-07-05T12:18:52;32.10;75.10
21429;DHT22;10875;50.444;30.540;2022-07-05T12:21:18;32.50;74.60
21429;DHT22;10875;50.444;30.540;2022-07-05T12:23:45;32.90;74.60
21429;DHT22;10875;50.444;30.540;2022-07-05T12:26:12;33.10;73.70
21429;DHT22;10875;50.444;30.540;2022-07-05T12:28:37;33.20;73.40
21429;DHT22;10875;50.444;30.540;2022-07-05T12:31:19;33.10;73.20
21429;DHT22;10875;50.444;30.540;2022-07-05T12:33:45;32.60;73.20
21429;DHT22;10875;50.444;30.540;2022-07-05T12:36:12;32.40;72.70
21429;DHT22;10875;50.444;30.540;2022-07-05T12:38:38;32.40;73.30
21429;DHT22;10875;50.444;30.540;2022-07-05T12:41:04;32.50;73.50
21429;DHT22;10875;50.444;30.540;2022-07-05T12:43:29;32.40;73.30
21429;DHT22;10875;50.444;30.540;2022-07-05T12:45:59;32.30;73.20
21429;DHT22;10875;50.444;30.540;2022-07-05T12:48:31;32.30;73.40
21429;DHT22;10875;50.444;30.540;2022-07-05T12:50:58;32.30;73.80
21429;DHT22;10875;50.444;30.540;2022-07-05T12:53:23;32.10;73.30
21429;DHT22;10875;50.444;30.540;2022-07-05T12:56:09;31.90;74.40
21429;DHT22;10875;50.444;30.540;2022-07-05T12:58:57;31.60;73.90
21429;DHT22;10875;50.444;30.540;2022-07-05T13:01:23;31.60;74.40
21429;DHT22;10875;50.444;30.540;2022-07-05T13:03:57;31.70;74.10
21429;DHT22;10875;50.444;30.540;2022-07-05T13:06:38;31.80;74.10
21429;DHT22;10875;50.444;30.540;2022-07-05T13:09:04;31.80;74.10
21429;DHT22;10875;50.444;30.540;2022-07-05T13:11:30;31.60;73.60
21429;DHT22;10875;50.444;30.540;2022-07-05T13:13:55;31.50;73.90
21429;DHT22;10875;50.444;30.540;2022-07-05T13:16:21;31.30;73.70
21429;DHT22;10875;50.444;30.540;2022-07-05T13:18:46;31.10;74.80
21429;DHT22;10875;50.444;30.540;2022-07-05T13:21:12;31.00;73.30
21429;DHT22;10875;50.444;30.540;2022-07-05T13:23:37;30.90;74.40
21429;DHT22;10875;50.444;30.540;2022-07-05T13:26:03;31.00;74.70
21429;DHT22;10875;50.444;30.540;2022-07-05T13:28:28;30.90;75.00
21429;DHT22;10875;50.444;30.540;2022-07-05T13:30:54;30.90;75.00
21429;DHT22;10875;50.444;30.540;2022-07-05T13:33:19;30.90;74.00
21429;DHT22;10875;50.444;30.540;2022-07-05T13:35:44;30.90;73.70
21429;DHT22;10875;50.444;30.540;2022-07-05T13:38:10;30.90;73.00
21429;DHT22;10875;50.444;30.540;2022-07-05T13:40:35;30.80;74.10
21429;DHT22;10875;50.444;30.540;2022-07-05T13:43:01;30.80;74.10
21429;DHT22;10875;50.444;30.540;2022-07-05T13:45:26;30.80;73.10
21429;DHT22;10875;50.444;30.540;2022-07-05T13:47:52;30.80;73.60
21429;DHT22;10875;50.444;30.540;2022-07-05T13:50:17;30.80;73.80
21429;DHT22;10875;50.444;30.540;2022-07-05T13:53:03;30.90;73.50
21429;DHT22;10875;50.444;30.540;2022-07-05T13:55:28;30.90;73.30
21429;DHT22;10875;50.444;30.540;2022-07-05T13:57:54;31.00;73.90
21429;DHT22;10875;50.444;30.540;2022-07-05T14:00:21;31.00;73.50
21429;DHT22;10875;50.444;30.540;2022-07-05T14:02:46;31.10;73.70
21429;DHT22;10875;50.444;30.540;2022-07-05T14:05:12;31.10;72.70
21429;DHT22;10875;50.444;30.540;2022-07-05T14:07:38;31.10;72.80
21429;DHT22;10875;50.444;30.540;2022-07-05T14:10:03;31.10;71.80
21429;DHT22;10875;50.444;30.540;2022-07-05T14:12:29;31.10;71.80
21429;DHT22;10875;50.444;30.540;2022-07-05T14:14:55;31.20;72.20
21429;DHT22;10875;50.444;30.540;2022-07-05T14:17:20;31.10;73.20
21429;DHT22;10875;50.444;30.540;2022-07-05T14:19:46;31.10;73.10
21429;DHT22;10875;50.444;30.540;2022-07-05T14:22:11;31.00;73.40
21429;DHT22;10875;50.444;30.540;2022-07-05T14:24:37;31.00;74.60
21429;DHT22;10875;50.444;30.540;2022-07-05T14:27:02;30.90;75.70
21429;DHT22;10875;50.444;30.540;2022-07-05T14:29:28;30.90;74.70
21429;DHT22;10875;50.444;30.540;2022-07-05T14:31:53;31.00;74.10
21429;DHT22;10875;50.444;30.540;2022-07-05T14:34:19;30.90;73.00
21429;DHT22;10875;50.444;30.540;2022-07-05T14:36:44;30.90;73.30
21429;DHT22;10875;50.444;30.540;2022-07-05T14:39:09;30.90;73.30
21429;DHT22;10875;50.444;30.540;2022-07-05T14:41:35;30.90;73.50
21429;DHT22;10875;50.444;30.540;2022-07-05T14:44:00;30.90;73.70
21429;DHT22;10875;50.444;30.540;2022-07-05T14:46:26;30.90;74.00
21429;DHT22;10875;50.444;30.540;2022-07-05T14:48:51;30.80;73.00
21429;DHT22;10875;50.444;30.540;2022-07-05T14:51:17;30.70;73.60
21429;DHT22;10875;50.444;30.540;2022-07-05T14:53:42;30.70;74.10
21429;DHT22;10875;50.444;30.540;2022-07-05T14:56:10;30.60;73.90
21429;DHT22;10875;50.444;30.540;2022-07-05T14:58:36;30.60;74.50
21429;DHT22;10875;50.444;30.540;2022-07-05T15:01:01;30.60;74.10
21429;DHT22;10875;50.444;30.540;2022-07-05T15:03:27;30.60;74.60
21429;DHT22;10875;50.444;30.540;2022-07-05T15:05:52;30.60;74.00
21429;DHT22;10875;50.444;30.540;2022-07-05T15:08:18;30.60;74.30
21429;DHT22;10875;50.444;30.540;2022-07-05T15:10:48;30.60;74.40
21429;DHT22;10875;50.444;30.540;2022-07-05T15:13:13;30.60;73.50
21429;DHT22;10875;50.444;30.540;2022-07-05T15:15:39;30.60;73.60
21429;DHT22;10875;50.444;30.540;2022-07-05T15:18:04;30.50;73.80
21429;DHT22;10875;50.444;30.540;2022-07-05T15:20:30;30.50;73.90
21429;DHT22;10875;50.444;30.540;2022-07-05T15:22:55;30.50;73.80
21429;DHT22;10875;50.444;30.540;2022-07-05T15:25:22;30.50;74.00
21429;DHT22;10875;50.444;30.540;2022-07-05T15:27:48;30.50;72.50
21429;DHT22;10875;50.444;30.540;2022-07-05T15:30:13;30.50;73.10
21429;DHT22;10875;50.444;30.540;2022-07-05T15:32:40;30.40;73.70